createdAt,value
2022-09-13T00:03:34.010Z,100153.56
2022-09-13T00:13:35.672Z,100150.13
2022-09-13T00:23:37.582Z,100157.06
2022-09-13T00:33:39.293Z,100148.59
2022-09-13T00:43:56.331Z,100138.31
2022-09-13T00:54:00.014Z,100138.44
2022-09-13T01:04:03.949Z,100141.94
2022-09-13T01:14:08.723Z,100139.44
2022-09-13T01:24:14.246Z,100142.88
2022-09-13T01:34:34.485Z,100130.09
2022-09-13T01:44:39.163Z,100140.50
2022-09-13T01:54:56.238Z,100128.53
2022-09-13T02:05:07.179Z,100127.72
2022-09-13T02:15:25.257Z,100128.66
2022-09-13T02:25:31.555Z,100121.81
2022-09-13T02:35:42.576Z,100115.84
2022-09-13T02:45:53.570Z,100122.72
2022-09-13T02:56:22.290Z,100118.44
2022-09-13T03:06:29.097Z,100109.00
2022-09-13T03:16:49.589Z,100102.16
2022-09-13T03:26:57.145Z,100094.38
2022-09-13T03:37:14.377Z,100092.72
2022-09-13T03:47:18.055Z,100083.31
2022-09-13T03:57:22.659Z,100072.97
2022-09-13T04:07:30.055Z,100079.00
2022-09-13T04:17:32.984Z,100076.41
2022-09-13T04:27:35.793Z,100071.25
2022-09-13T04:37:39.293Z,100078.13
2022-09-13T04:47:42.026Z,100088.44
2022-09-13T04:57:44.641Z,100088.41
2022-09-13T05:07:46.390Z,100091.81
2022-09-13T05:17:55.147Z,100102.06
2022-09-13T05:27:56.848Z,100097.66
2022-09-13T05:38:02.828Z,100097.47
2022-09-13T05:48:04.886Z,100095.44
2022-09-13T05:58:07.535Z,100095.16
2022-09-13T06:08:09.091Z,100111.16
2022-09-13T06:18:10.781Z,100119.22
2022-09-13T06:28:12.457Z,100108.13
2022-09-13T06:38:14.670Z,100106.44
2022-09-13T06:48:18.427Z,100113.91
2022-09-13T06:58:21.162Z,100112.38
2022-09-13T07:08:23.176Z,100108.66
2022-09-13T07:18:34.673Z,100112.94
2022-09-13T07:28:39.853Z,100119.25
2022-09-13T07:38:45.503Z,100097.16
2022-09-13T07:48:50.337Z,100116.59
2022-09-13T07:58:55.156Z,100127.97
2022-09-13T08:08:58.149Z,100109.91
2022-09-13T08:19:03.203Z,100117.00
2022-09-13T08:29:08.209Z,100121.38
2022-09-13T08:39:13.795Z,100117.19
2022-09-13T08:49:19.882Z,100109.69
2022-09-13T09:00:04.753Z,100101.72
2022-09-13T09:10:22.166Z,100108.41
2022-09-13T09:20:28.752Z,100093.91
2022-09-13T09:30:46.335Z,100078.75
2022-09-13T09:40:54.143Z,100075.47
2022-09-13T09:51:01.101Z,100070.72
2022-09-13T10:01:09.557Z,100058.97
2022-09-13T10:11:15.458Z,100023.75
2022-09-13T10:21:25.843Z,100011.59
2022-09-13T10:31:32.205Z,100002.69
2022-09-13T10:41:39.289Z,99990.94
2022-09-13T10:51:42.594Z,100005.78
2022-09-13T11:02:02.313Z,99999.00
2022-09-13T11:12:11.320Z,99995.81
2022-09-13T11:22:32.759Z,99983.63
2022-09-13T11:32:43.732Z,99978.25
2022-09-13T11:42:58.977Z,99947.72
2022-09-13T11:53:11.557Z,99937.16
2022-09-13T12:03:28.384Z,99938.97
2022-09-13T12:13:41.628Z,99946.06
2022-09-13T12:23:50.903Z,99925.66
2022-09-13T12:33:53.128Z,99910.38
2022-09-13T12:44:04.441Z,99905.13
2022-09-13T12:54:55.456Z,99904.94
2022-09-13T13:05:08.367Z,99900.28
2022-09-13T13:15:25.519Z,99908.25
2022-09-13T13:25:38.986Z,99879.56
2022-09-13T13:35:43.455Z,99878.41
2022-09-13T13:46:25.311Z,99881.84
2022-09-13T13:56:49.426Z,99876.97
2022-09-13T14:06:55.888Z,99869.09
2022-09-13T14:17:29.672Z,99857.25
2022-09-13T14:27:36.188Z,99848.53
2022-09-13T14:37:40.471Z,99849.22
2022-09-13T14:48:04.962Z,99836.44
2022-09-13T14:58:16.001Z,99823.97
2022-09-13T15:08:48.172Z,99822.66
2022-09-13T15:18:51.967Z,99807.50
2022-09-13T15:29:04.141Z,99803.19
2022-09-13T15:39:13.463Z,99798.91
2022-09-13T15:49:31.441Z,99796.63
2022-09-13T15:59:39.414Z,99798.31
2022-09-13T16:09:42.627Z,99782.56
2022-09-13T16:19:44.274Z,99768.00
2022-09-13T16:29:50.973Z,99768.00
2022-09-13T16:39:57.004Z,99762.84
2022-09-13T16:49:58.618Z,99762.06
2022-09-13T17:00:04.698Z,99761.94
2022-09-13T17:10:08.016Z,99760.06
2022-09-13T17:20:13.792Z,99768.25
2022-09-13T17:30:19.177Z,99766.16
2022-09-13T17:40:20.918Z,99761.63
2022-09-13T17:50:23.601Z,99766.75
2022-09-13T18:00:25.328Z,99763.50
2022-09-13T18:10:58.056Z,99765.09
2022-09-13T18:20:54.403Z,99775.56
2022-09-13T18:31:03.072Z,99791.34
2022-09-13T18:41:07.449Z,99794.88
2022-09-13T18:51:18.024Z,99796.44
2022-09-13T19:01:26.156Z,99804.28
2022-09-13T19:11:46.488Z,99801.47
2022-09-13T19:21:50.210Z,99806.47
2022-09-13T19:31:53.050Z,99803.44
2022-09-13T19:41:55.276Z,99804.69
2022-09-13T19:52:02.287Z,99793.00
2022-09-13T20:02:05.685Z,99788.34
2022-09-13T20:12:08.923Z,99801.06
2022-09-13T20:22:11.551Z,99794.38
2022-09-13T20:32:13.816Z,99787.38
2022-09-13T20:42:17.363Z,99783.69
2022-09-13T20:52:19.431Z,99784.69
2022-09-13T21:02:21.534Z,99781.78
2022-09-13T21:12:24.131Z,99765.75
2022-09-13T21:22:26.519Z,99765.97
2022-09-13T21:32:30.136Z,99754.88
2022-09-13T21:42:37.085Z,99757.69
2022-09-13T21:52:39.326Z,99750.56
2022-09-13T22:02:44.433Z,99762.97
2022-09-13T22:12:47.305Z,99758.00
2022-09-13T22:22:48.996Z,99743.88
2022-09-13T22:32:53.348Z,99724.66
2022-09-13T22:42:54.916Z,99712.84
2022-09-13T22:52:56.668Z,99715.31
2022-09-13T23:02:58.252Z,99725.00
2022-09-13T23:13:00.127Z,99726.56
2022-09-13T23:23:01.709Z,99738.09
2022-09-13T23:33:05.787Z,99725.22
2022-09-13T23:43:07.406Z,99719.69
2022-09-13T23:53:10.375Z,99710.59
